createdAt,value
2024-03-15T00:04:16.868Z,1.13
2024-03-15T00:09:20.614Z,1.00
2024-03-15T00:14:24.360Z,1.10
2024-03-15T00:19:28.057Z,1.17
2024-03-15T00:24:31.848Z,1.20
2024-03-15T00:29:37.977Z,1.20
2024-03-15T00:34:41.727Z,1.23
2024-03-15T00:39:45.497Z,1.20
2024-03-15T00:44:49.844Z,1.00
2024-03-15T00:49:53.559Z,1.10
2024-03-15T00:54:57.456Z,1.05
2024-03-15T01:00:01.130Z,1.20
2024-03-15T01:05:06.666Z,1.00
2024-03-15T01:10:10.675Z,1.00
2024-03-15T01:15:14.470Z,1.10
2024-03-15T01:20:18.213Z,1.20
2024-03-15T01:25:21.884Z,1.20
2024-03-15T01:30:25.611Z,1.60
2024-03-15T01:35:33.433Z,1.30
2024-03-15T01:40:37.541Z,1.35
2024-03-15T01:45:41.621Z,1.40
2024-03-15T01:50:45.298Z,1.50
2024-03-15T01:55:49.156Z,1.58
2024-03-15T02:00:52.947Z,1.80
2024-03-15T02:05:56.896Z,1.52
2024-03-15T02:11:00.643Z,1.55
2024-03-15T02:16:04.571Z,1.70
2024-03-15T02:21:08.299Z,1.70
2024-03-15T02:26:12.421Z,1.52
2024-03-15T02:31:16.232Z,1.70
2024-03-15T02:36:20.164Z,1.42
2024-03-15T02:41:23.876Z,1.40
2024-03-15T02:46:27.759Z,1.40
2024-03-15T02:51:31.459Z,1.60
2024-03-15T02:56:35.249Z,1.40
2024-03-15T03:01:38.915Z,1.52
2024-03-15T03:06:43.624Z,1.52
2024-03-15T03:11:47.464Z,1.60
2024-03-15T03:16:51.144Z,1.38
2024-03-15T03:21:56.876Z,1.27
2024-03-15T03:27:01.028Z,1.50
2024-03-15T03:32:04.823Z,1.63
2024-03-15T03:37:08.867Z,1.30
2024-03-15T03:42:13.102Z,1.50
2024-03-15T03:47:17.051Z,1.40
2024-03-15T03:52:21.002Z,1.30
2024-03-15T03:57:38.636Z,1.38
2024-03-15T04:02:48.072Z,1.50
2024-03-15T04:07:51.805Z,1.45
2024-03-15T04:12:56.274Z,1.20
2024-03-15T04:18:00.660Z,1.23
2024-03-15T04:23:05.065Z,1.23
2024-03-15T04:28:09.703Z,1.30
2024-03-15T04:33:13.554Z,1.27
2024-03-15T04:38:17.264Z,1.20
2024-03-15T04:43:20.953Z,1.08
2024-03-15T04:48:24.849Z,1.13
2024-03-15T04:53:28.660Z,1.25
2024-03-15T04:58:34.980Z,1.27
2024-03-15T05:03:38.772Z,1.15
2024-03-15T05:08:43.563Z,1.20
2024-03-15T05:13:50.921Z,1.20
2024-03-15T05:18:54.821Z,1.10
2024-03-15T05:23:58.624Z,1.05
2024-03-15T05:29:02.393Z,1.27
2024-03-15T05:34:09.076Z,1.02
2024-03-15T05:39:12.983Z,1.02
2024-03-15T05:44:16.772Z,1.20
2024-03-15T05:49:23.296Z,1.10
2024-03-15T05:54:27.926Z,1.20
2024-03-15T05:59:32.302Z,1.00
2024-03-15T06:04:36.024Z,1.30
2024-03-15T06:09:40.701Z,1.27
2024-03-15T06:14:44.462Z,1.00
2024-03-15T06:19:49.474Z,1.10
2024-03-15T06:24:55.964Z,1.08
2024-03-15T06:29:59.833Z,1.10
2024-03-15T06:35:18.108Z,1.00
2024-03-15T06:40:31.816Z,0.88
2024-03-15T06:45:46.063Z,1.08
2024-03-15T06:50:51.553Z,0.93
2024-03-15T06:55:58.008Z,1.00
2024-03-15T07:01:02.232Z,1.00
2024-03-15T07:06:06.342Z,1.20
2024-03-15T07:11:10.185Z,1.02
2024-03-15T07:16:14.161Z,0.98
2024-03-15T07:21:18.819Z,1.10
2024-03-15T07:26:23.351Z,1.00
2024-03-15T07:31:27.652Z,1.00
2024-03-15T07:36:31.482Z,1.15
2024-03-15T07:41:35.689Z,1.10
2024-03-15T07:46:39.486Z,1.15
2024-03-15T07:51:45.870Z,1.27
2024-03-15T07:56:49.572Z,1.20
2024-03-15T08:06:58.550Z,1.55
2024-03-15T08:12:05.124Z,1.40
2024-03-15T08:17:10.059Z,1.50
2024-03-15T08:22:13.725Z,1.90
2024-03-15T08:27:17.598Z,1.30
2024-03-15T08:32:21.481Z,1.10
2024-03-15T08:37:25.278Z,1.50
2024-03-15T08:42:30.671Z,1.30
2024-03-15T08:47:46.230Z,1.40
2024-03-15T08:52:58.017Z,1.20
2024-03-15T08:58:01.864Z,1.02
2024-03-15T09:03:08.368Z,1.40
2024-03-15T09:13:18.277Z,1.10
2024-03-15T09:18:23.203Z,1.20
2024-03-15T09:23:26.964Z,1.02
2024-03-15T09:28:36.563Z,1.15
2024-03-15T09:33:42.897Z,1.00
2024-03-15T09:38:47.529Z,1.00
2024-03-15T09:43:51.356Z,1.10
2024-03-15T09:48:57.636Z,1.23
2024-03-15T09:54:03.408Z,1.27
2024-03-15T09:59:07.385Z,1.10
2024-03-15T10:04:11.122Z,1.23
2024-03-15T10:09:14.994Z,1.05
2024-03-15T10:14:18.766Z,1.20
2024-03-15T10:19:24.451Z,1.60
2024-03-15T10:24:30.125Z,1.50
2024-03-15T10:29:33.910Z,1.45
2024-03-15T10:34:37.555Z,1.58
2024-03-15T10:39:42.341Z,1.63
2024-03-15T10:44:46.136Z,1.60
2024-03-15T10:49:50.980Z,1.55
2024-03-15T10:54:54.658Z,1.67
2024-03-15T10:59:58.384Z,1.60
2024-03-15T11:05:01.998Z,1.50
2024-03-15T11:10:12.137Z,1.23
2024-03-15T11:15:17.670Z,1.50
2024-03-15T11:20:21.508Z,1.50
2024-03-15T11:25:26.582Z,1.63
2024-03-15T11:30:30.571Z,1.60
2024-03-15T11:35:34.921Z,1.85
2024-03-15T11:40:39.219Z,1.80
2024-03-15T11:45:43.534Z,1.80
2024-03-15T11:50:47.331Z,1.63
2024-03-15T11:55:51.028Z,1.67
2024-03-15T12:00:55.074Z,1.83
2024-03-15T12:05:59.684Z,1.70
2024-03-15T12:11:03.500Z,1.90
2024-03-15T12:16:07.580Z,1.42
2024-03-15T12:21:12.193Z,1.75
2024-03-15T12:26:15.898Z,2.03
2024-03-15T12:31:19.631Z,1.50
2024-03-15T12:36:23.360Z,1.58
2024-03-15T12:41:27.116Z,1.70
2024-03-15T12:46:30.894Z,1.50
2024-03-15T12:51:34.648Z,1.60
2024-03-15T12:56:38.329Z,1.70
2024-03-15T13:01:42.016Z,1.52
2024-03-15T13:06:45.763Z,1.52
2024-03-15T13:11:49.826Z,1.58
2024-03-15T13:16:53.705Z,1.70
2024-03-15T13:21:57.506Z,1.52
2024-03-15T13:27:01.352Z,1.77
2024-03-15T13:32:05.454Z,1.63
2024-03-15T13:37:09.133Z,1.50
2024-03-15T13:42:12.866Z,1.50
2024-03-15T13:47:16.965Z,1.60
2024-03-15T13:52:21.424Z,1.45
2024-03-15T13:57:25.627Z,1.63
2024-03-15T14:02:29.342Z,1.60
2024-03-15T14:07:33.319Z,1.50
2024-03-15T14:12:37.071Z,1.50
2024-03-15T14:17:40.982Z,1.67
2024-03-15T14:22:44.677Z,2.03
2024-03-15T14:27:50.043Z,1.90
2024-03-15T14:32:55.918Z,2.20
2024-03-15T14:38:00.123Z,2.00
2024-03-15T14:43:04.719Z,2.05
2024-03-15T14:48:14.661Z,1.90
2024-03-15T14:53:22.178Z,1.90
2024-03-15T14:58:26.305Z,1.60
2024-03-15T15:03:30.008Z,1.60
2024-03-15T15:08:33.687Z,2.38
2024-03-15T15:13:37.677Z,2.17
2024-03-15T15:18:41.572Z,1.88
2024-03-15T15:23:45.770Z,1.58
2024-03-15T15:28:51.353Z,1.85
2024-03-15T15:33:57.698Z,1.90
2024-03-15T15:39:01.452Z,1.60
2024-03-15T15:44:06.072Z,1.65
2024-03-15T15:49:10.617Z,1.85
2024-03-15T15:54:14.297Z,1.80
2024-03-15T15:59:18.058Z,2.20
2024-03-15T16:04:24.378Z,2.10
2024-03-15T16:09:29.236Z,1.90
2024-03-15T16:14:33.041Z,1.80
2024-03-15T16:19:36.706Z,1.80
2024-03-15T16:24:41.969Z,2.17
2024-03-15T16:29:45.658Z,1.80
2024-03-15T16:34:50.007Z,1.60
2024-03-15T16:39:53.827Z,1.50
2024-03-15T16:44:58.837Z,1.70
2024-03-15T16:50:02.707Z,1.70
2024-03-15T16:55:09.748Z,1.60
2024-03-15T17:00:17.814Z,1.80
2024-03-15T17:05:21.600Z,1.88
2024-03-15T17:10:25.454Z,1.90
2024-03-15T17:15:29.284Z,1.63
2024-03-15T17:20:33.282Z,2.10
2024-03-15T17:25:36.950Z,1.70
2024-03-15T17:30:40.643Z,2.15
2024-03-15T17:35:44.299Z,1.77
2024-03-15T17:40:50.254Z,1.80
2024-03-15T17:45:54.010Z,1.25
2024-03-15T17:50:57.727Z,1.42
2024-03-15T17:56:01.390Z,1.50
2024-03-15T18:01:05.827Z,1.50
2024-03-15T18:06:11.008Z,1.38
2024-03-15T18:11:14.980Z,1.42
2024-03-15T18:16:18.751Z,1.42
2024-03-15T18:21:23.956Z,1.27
2024-03-15T18:26:27.886Z,1.58
2024-03-15T18:31:34.678Z,1.40
2024-03-15T18:36:38.372Z,1.20
2024-03-15T18:41:42.033Z,1.48
2024-03-15T18:46:45.719Z,1.20
2024-03-15T18:51:49.557Z,1.40
2024-03-15T18:56:55.076Z,1.40
2024-03-15T19:02:02.663Z,1.30
2024-03-15T19:07:06.472Z,1.25
2024-03-15T19:12:10.195Z,1.17
2024-03-15T19:17:15.676Z,1.48
2024-03-15T19:22:19.317Z,1.13
2024-03-15T19:27:25.420Z,1.27
2024-03-15T19:32:29.458Z,1.23
2024-03-15T19:37:33.364Z,0.93
2024-03-15T19:42:37.585Z,1.00
2024-03-15T19:47:41.405Z,1.10
2024-03-15T19:52:45.254Z,1.00
2024-03-15T19:57:49.515Z,1.10
2024-03-15T20:02:53.856Z,1.27
2024-03-15T20:07:58.502Z,1.30
2024-03-15T20:13:02.474Z,1.10
2024-03-15T20:18:07.251Z,0.93
2024-03-15T20:23:10.936Z,1.50
2024-03-15T20:28:14.868Z,1.10
2024-03-15T20:33:18.539Z,1.17
2024-03-15T20:38:22.653Z,1.00
2024-03-15T20:43:26.490Z,1.10
2024-03-15T20:48:30.214Z,1.10
2024-03-15T20:53:34.162Z,1.02
2024-03-15T20:58:37.810Z,1.00
2024-03-15T21:03:41.491Z,1.05
2024-03-15T21:08:46.876Z,1.10
2024-03-15T21:13:52.286Z,0.80
2024-03-15T21:18:56.028Z,0.90
2024-03-15T21:23:59.786Z,0.90
2024-03-15T21:29:03.482Z,0.90
2024-03-15T21:34:07.150Z,1.13
2024-03-15T21:39:12.521Z,0.98
2024-03-15T21:44:16.556Z,1.00
2024-03-15T21:49:20.273Z,1.20
2024-03-15T21:54:26.467Z,0.82
2024-03-15T21:59:30.215Z,1.10
2024-03-15T22:04:33.904Z,0.90
2024-03-15T22:09:37.768Z,0.90
2024-03-15T22:14:41.552Z,1.00
2024-03-15T22:19:45.439Z,1.10
2024-03-15T22:24:49.107Z,1.02
2024-03-15T22:29:52.808Z,1.00
2024-03-15T22:34:56.827Z,0.98
2024-03-15T22:40:00.746Z,0.98
2024-03-15T22:45:04.712Z,0.90
2024-03-15T22:50:09.124Z,0.90
2024-03-15T22:55:13.017Z,0.90
2024-03-15T23:00:18.290Z,0.90
2024-03-15T23:05:22.503Z,0.90
2024-03-15T23:10:26.407Z,0.90
2024-03-15T23:15:30.337Z,1.00
2024-03-15T23:20:34.319Z,0.90
2024-03-15T23:25:38.457Z,1.00
2024-03-15T23:30:42.457Z,0.82
2024-03-15T23:35:46.498Z,0.77
2024-03-15T23:40:50.434Z,0.90
2024-03-15T23:45:54.399Z,0.80
2024-03-15T23:51:00.413Z,0.85
2024-03-15T23:56:04.337Z,0.93
